createdAt,value
2022-12-23T00:01:51.767Z,52.15
2022-12-23T00:04:18.511Z,52.50
2022-12-23T00:06:49.936Z,53.10
2022-12-23T00:09:19.118Z,52.90
2022-12-23T00:11:45.861Z,50.80
2022-12-23T00:14:20.136Z,50.10
2022-12-23T00:16:48.729Z,52.53
2022-12-23T00:19:15.450Z,51.88
2022-12-23T00:21:44.650Z,52.05
2022-12-23T00:24:11.802Z,56.78
2022-12-23T00:26:38.699Z,51.70
2022-12-23T00:29:05.334Z,51.70
2022-12-23T00:31:36.654Z,51.05
2022-12-23T00:34:06.207Z,49.88
2022-12-23T00:36:32.974Z,51.47
2022-12-23T00:39:00.440Z,50.17
2022-12-23T00:41:27.302Z,50.05
2022-12-23T00:43:54.031Z,50.65
2022-12-23T00:46:20.699Z,51.55
2022-12-23T00:48:52.740Z,49.40
2022-12-23T00:51:22.335Z,47.92
2022-12-23T00:53:49.001Z,50.05
2022-12-23T00:56:15.692Z,48.22
2022-12-23T00:58:45.094Z,49.90
2022-12-23T01:01:11.727Z,51.17
2022-12-23T01:03:38.580Z,50.45
2022-12-23T01:06:08.375Z,47.50
2022-12-23T01:08:35.139Z,47.40
2022-12-23T01:11:06.701Z,47.88
2022-12-23T01:13:33.936Z,48.78
2022-12-23T01:16:09.343Z,48.97
2022-12-23T01:18:41.651Z,49.28
2022-12-23T01:21:10.200Z,48.22
2022-12-23T01:23:39.426Z,48.90
2022-12-23T01:26:10.021Z,49.17
2022-12-23T01:28:36.708Z,48.28
2022-12-23T01:31:05.536Z,47.08
2022-12-23T01:33:33.401Z,47.20
2022-12-23T01:36:07.073Z,45.10
2022-12-23T01:38:34.972Z,50.00
2022-12-23T01:41:01.727Z,48.13
2022-12-23T01:43:49.668Z,50.85
2022-12-23T01:46:16.648Z,47.60
2022-12-23T01:48:49.081Z,48.83
2022-12-23T01:51:26.298Z,45.00
2022-12-23T01:53:59.575Z,46.80
2022-12-23T01:56:36.836Z,46.97
2022-12-23T01:59:07.968Z,47.10
2022-12-23T02:01:37.299Z,45.93
2022-12-23T02:04:10.037Z,46.13
2022-12-23T02:06:48.392Z,46.83
2022-12-23T02:09:27.002Z,45.97
2022-12-23T02:12:28.418Z,48.35
2022-12-23T02:15:05.585Z,44.28
2022-12-23T02:17:52.484Z,46.35
2022-12-23T02:20:19.078Z,46.22
2022-12-23T02:22:59.955Z,45.03
2022-12-23T02:25:42.635Z,45.33
2022-12-23T02:28:40.655Z,43.42
2022-12-23T02:31:10.157Z,43.28
2022-12-23T02:33:51.499Z,43.15
2022-12-23T02:36:41.419Z,43.53
2022-12-23T02:39:22.232Z,45.20
2022-12-23T02:41:57.486Z,44.10
2022-12-23T02:45:02.540Z,43.33
2022-12-23T02:47:36.737Z,43.92
2022-12-23T02:50:11.762Z,46.65
2022-12-23T02:52:40.535Z,44.35
2022-12-23T02:55:15.824Z,45.53
2022-12-23T02:57:47.816Z,45.28
2022-12-23T03:00:17.662Z,46.45
2022-12-23T03:02:46.639Z,43.10
2022-12-23T03:05:30.928Z,46.08
2022-12-23T03:08:04.692Z,47.38
2022-12-23T03:10:54.114Z,47.20
2022-12-23T03:13:42.685Z,45.47
2022-12-23T03:16:27.946Z,46.90
2022-12-23T03:19:22.288Z,46.10
2022-12-23T03:21:54.942Z,45.38
2022-12-23T03:24:27.254Z,45.75
2022-12-23T03:27:12.466Z,44.15
2022-12-23T03:30:13.166Z,44.97
2022-12-23T03:33:32.117Z,45.60
2022-12-23T03:36:03.970Z,43.55
2022-12-23T03:38:33.540Z,45.83
2022-12-23T03:41:09.588Z,44.67
2022-12-23T03:43:48.387Z,45.80
2022-12-23T03:46:23.912Z,46.83
2022-12-23T03:49:03.471Z,45.22
2022-12-23T03:51:56.321Z,44.28
2022-12-23T03:54:35.877Z,45.10
2022-12-23T03:57:06.107Z,46.92
2022-12-23T03:59:36.077Z,45.50
2022-12-23T04:02:25.222Z,44.88
2022-12-23T04:05:26.312Z,43.60
2022-12-23T04:08:14.761Z,45.65
2022-12-23T04:10:41.639Z,45.00
2022-12-23T04:13:14.133Z,44.88
2022-12-23T04:15:47.731Z,43.30
2022-12-23T04:18:14.429Z,45.85
2022-12-23T04:20:41.999Z,46.33
2022-12-23T04:23:09.943Z,44.45
2022-12-23T04:25:36.900Z,44.75
2022-12-23T04:28:03.697Z,44.25
2022-12-23T04:30:34.546Z,44.40
2022-12-23T04:33:01.799Z,44.40
2022-12-23T04:35:28.478Z,46.15
2022-12-23T04:37:55.224Z,45.95
2022-12-23T04:40:21.822Z,44.97
2022-12-23T04:42:48.632Z,47.20
2022-12-23T04:45:15.274Z,45.72
2022-12-23T04:47:41.925Z,47.05
2022-12-23T04:50:13.305Z,48.42
2022-12-23T04:52:40.507Z,46.40
2022-12-23T04:55:11.383Z,46.70
2022-12-23T04:57:37.991Z,49.05
2022-12-23T05:00:05.782Z,49.47
2022-12-23T05:02:32.519Z,48.40
2022-12-23T05:04:59.248Z,47.83
2022-12-23T05:07:26.009Z,52.70
2022-12-23T05:09:55.838Z,52.67
2022-12-23T05:12:25.419Z,50.75
2022-12-23T05:14:52.107Z,52.85
2022-12-23T05:17:26.904Z,51.17
2022-12-23T05:19:56.250Z,49.38
2022-12-23T05:22:22.825Z,50.40
2022-12-23T05:24:49.428Z,49.45
2022-12-23T05:27:16.040Z,49.08
2022-12-23T05:29:42.671Z,50.30
2022-12-23T05:32:09.415Z,49.35
2022-12-23T05:34:36.060Z,46.83
2022-12-23T05:37:02.700Z,48.92
2022-12-23T05:39:29.541Z,47.28
2022-12-23T05:41:57.276Z,48.17
2022-12-23T05:44:23.852Z,45.42
2022-12-23T05:46:50.488Z,45.50
2022-12-23T05:49:20.001Z,45.97
2022-12-23T05:51:46.641Z,45.45
2022-12-23T05:54:13.329Z,44.92
2022-12-23T05:56:39.954Z,46.05
2022-12-23T05:59:07.781Z,44.35
2022-12-23T06:01:37.512Z,42.45
2022-12-23T06:04:04.457Z,45.42
2022-12-23T06:06:31.125Z,46.30
2022-12-23T06:09:01.268Z,45.13
2022-12-23T06:11:28.162Z,45.75
2022-12-23T06:13:59.881Z,44.58
2022-12-23T06:16:30.397Z,43.78
2022-12-23T06:18:57.201Z,43.58
2022-12-23T06:21:23.901Z,42.80
2022-12-23T06:23:50.507Z,43.75
2022-12-23T06:26:17.493Z,44.28
2022-12-23T06:28:44.126Z,43.88
2022-12-23T06:31:10.869Z,43.72
2022-12-23T06:33:38.881Z,44.88
2022-12-23T06:36:06.225Z,42.00
2022-12-23T06:38:32.851Z,42.67
2022-12-23T06:40:59.565Z,42.88
2022-12-23T06:43:26.309Z,40.03
2022-12-23T06:45:52.943Z,41.78
2022-12-23T06:48:19.630Z,41.55
2022-12-23T06:50:46.472Z,45.95
2022-12-23T06:53:13.462Z,44.28
2022-12-23T06:55:40.246Z,42.97
2022-12-23T06:58:06.826Z,46.75
2022-12-23T07:00:36.334Z,48.83
2022-12-23T07:03:05.926Z,45.17
2022-12-23T07:05:37.241Z,48.25
2022-12-23T07:08:04.648Z,46.78
2022-12-23T07:10:31.251Z,48.33
2022-12-23T07:12:57.842Z,47.80
2022-12-23T07:15:27.110Z,45.97
2022-12-23T07:18:01.890Z,45.80
2022-12-23T07:20:28.675Z,49.22
2022-12-23T07:22:56.044Z,48.72
2022-12-23T07:25:23.411Z,47.42
2022-12-23T07:27:56.013Z,47.03
2022-12-23T07:30:23.265Z,46.33
2022-12-23T07:32:54.477Z,44.85
2022-12-23T07:35:22.406Z,44.07
2022-12-23T07:37:59.114Z,44.17
2022-12-23T07:40:28.434Z,46.22
2022-12-23T07:42:57.303Z,45.50
2022-12-23T07:45:27.446Z,44.78
2022-12-23T07:47:55.062Z,43.75
2022-12-23T07:50:22.238Z,42.33
2022-12-23T07:52:48.938Z,43.28
2022-12-23T07:55:17.073Z,41.90
2022-12-23T07:57:45.641Z,42.30
2022-12-23T08:00:12.583Z,39.55
2022-12-23T08:02:39.344Z,35.47
2022-12-23T08:05:07.828Z,37.97
2022-12-23T08:07:34.545Z,36.13
2022-12-23T08:10:01.347Z,32.63
2022-12-23T08:12:27.998Z,35.08
2022-12-23T08:14:55.880Z,33.60
2022-12-23T08:17:26.695Z,34.40
2022-12-23T08:19:53.358Z,34.47
2022-12-23T08:22:19.932Z,31.67
2022-12-23T08:24:46.545Z,33.25
2022-12-23T08:27:13.121Z,32.00
2022-12-23T08:29:40.304Z,31.88
2022-12-23T08:32:07.476Z,31.75
2022-12-23T08:34:34.598Z,32.05
2022-12-23T08:37:01.578Z,33.35
2022-12-23T08:39:28.451Z,32.45
2022-12-23T08:41:58.009Z,31.98
2022-12-23T08:44:24.686Z,33.13
2022-12-23T08:46:51.444Z,34.00
2022-12-23T08:49:21.453Z,34.75
2022-12-23T08:51:48.083Z,34.10
2022-12-23T08:54:15.210Z,34.88
2022-12-23T08:56:45.200Z,34.55
2022-12-23T08:59:19.129Z,33.60
2022-12-23T09:01:49.724Z,33.03
2022-12-23T09:04:17.851Z,31.27
2022-12-23T09:06:44.993Z,32.33
2022-12-23T09:09:13.775Z,32.30
2022-12-23T09:11:40.424Z,30.85
2022-12-23T09:14:07.251Z,34.10
2022-12-23T09:16:34.134Z,30.63
2022-12-23T09:19:02.274Z,30.13
2022-12-23T09:21:30.720Z,29.67
2022-12-23T09:23:57.472Z,31.83
2022-12-23T09:26:29.657Z,31.30
2022-12-23T09:28:57.533Z,33.63
2022-12-23T09:31:34.317Z,36.20
2022-12-23T09:34:05.323Z,34.95
2022-12-23T09:36:32.259Z,36.63
2022-12-23T09:39:02.495Z,37.80
2022-12-23T09:42:06.740Z,36.53
2022-12-23T09:44:44.971Z,37.40
2022-12-23T09:47:24.081Z,37.33
2022-12-23T09:49:54.785Z,37.17
2022-12-23T09:52:33.515Z,38.05
2022-12-23T09:55:00.215Z,37.17
2022-12-23T09:57:36.559Z,36.15
2022-12-23T10:00:22.800Z,37.40
2022-12-23T10:03:11.385Z,37.53
2022-12-23T10:06:13.110Z,35.45
2022-12-23T10:08:44.997Z,37.65
2022-12-23T10:11:26.845Z,37.78
2022-12-23T10:14:00.098Z,38.08
2022-12-23T10:16:34.777Z,38.90
2022-12-23T10:19:14.582Z,39.03
2022-12-23T10:21:48.223Z,39.13
2022-12-23T10:24:24.901Z,41.38
2022-12-23T10:26:57.376Z,38.65
2022-12-23T10:29:28.100Z,41.42
2022-12-23T10:32:19.425Z,42.22
2022-12-23T10:35:06.641Z,42.80
2022-12-23T10:37:52.087Z,43.95
2022-12-23T10:40:44.477Z,43.40
2022-12-23T10:43:43.423Z,45.13
2022-12-23T10:46:28.055Z,40.85
2022-12-23T10:49:18.143Z,42.13
2022-12-23T10:51:55.117Z,43.90
2022-12-23T10:54:32.206Z,44.15
2022-12-23T10:56:59.231Z,42.63
2022-12-23T10:59:31.181Z,41.50
2022-12-23T11:02:36.329Z,42.05
2022-12-23T11:05:16.012Z,41.50
2022-12-23T11:07:49.146Z,38.97
2022-12-23T11:10:22.184Z,39.63
2022-12-23T11:12:51.701Z,39.88
2022-12-23T11:15:29.007Z,40.20
2022-12-23T11:18:15.996Z,41.25
2022-12-23T11:20:45.806Z,39.65
2022-12-23T11:23:27.117Z,38.78
2022-12-23T11:26:20.733Z,39.87
2022-12-23T11:29:06.687Z,38.38
2022-12-23T11:31:35.483Z,41.03
2022-12-23T11:34:18.494Z,40.22
2022-12-23T11:37:07.749Z,40.88
2022-12-23T11:39:37.587Z,39.75
2022-12-23T11:42:15.770Z,37.10
2022-12-23T11:44:51.222Z,40.13
2022-12-23T11:47:40.234Z,38.28
2022-12-23T11:50:47.957Z,40.58
2022-12-23T11:53:31.468Z,40.97
2022-12-23T11:56:20.123Z,39.30
2022-12-23T11:59:02.949Z,37.10
2022-12-23T12:01:35.281Z,32.20
2022-12-23T12:04:13.501Z,37.88
2022-12-23T12:06:56.006Z,36.72
2022-12-23T12:09:28.993Z,37.60
2022-12-23T12:12:14.861Z,40.45
2022-12-23T12:14:45.209Z,40.33
2022-12-23T12:17:20.569Z,42.10
2022-12-23T12:19:56.619Z,40.50
2022-12-23T12:22:33.595Z,40.53
2022-12-23T12:25:06.223Z,38.90
2022-12-23T12:27:38.393Z,38.97
2022-12-23T12:30:13.907Z,40.53
2022-12-23T12:33:03.783Z,38.58
2022-12-23T12:35:53.733Z,38.50
2022-12-23T12:38:33.772Z,38.63
2022-12-23T12:41:21.468Z,31.98
2022-12-23T12:44:18.985Z,33.50
2022-12-23T12:47:28.005Z,36.97
2022-12-23T12:50:04.906Z,35.33
2022-12-23T12:52:39.822Z,30.58
2022-12-23T12:55:22.743Z,34.65
2022-12-23T12:57:49.482Z,35.05
2022-12-23T13:00:21.587Z,34.55
2022-12-23T13:05:39.392Z,34.45
2022-12-23T13:08:15.441Z,35.38
2022-12-23T13:10:54.564Z,36.97
2022-12-23T13:13:48.578Z,38.78
2022-12-23T13:16:27.340Z,37.83
2022-12-23T13:18:56.675Z,32.92
2022-12-23T13:21:42.158Z,35.33
2022-12-23T13:24:20.123Z,35.50
2022-12-23T13:27:13.907Z,37.83
2022-12-23T13:30:12.542Z,29.77
2022-12-23T13:33:06.991Z,35.50
2022-12-23T13:36:11.772Z,33.55
2022-12-23T13:38:53.520Z,35.30
2022-12-23T13:41:26.529Z,37.03
2022-12-23T13:44:10.322Z,35.97
2022-12-23T13:47:18.027Z,32.83
2022-12-23T13:49:54.380Z,34.65
2022-12-23T13:52:27.564Z,35.97
2022-12-23T13:55:52.914Z,38.95
2022-12-23T13:58:25.990Z,36.47
2022-12-23T14:00:58.569Z,36.00
2022-12-23T14:03:39.045Z,36.17
2022-12-23T14:06:46.725Z,29.52
2022-12-23T14:09:16.405Z,28.85
2022-12-23T14:11:48.308Z,37.95
2022-12-23T14:17:33.256Z,38.45
2022-12-23T14:20:36.889Z,41.97
2022-12-23T14:23:59.517Z,42.28
2022-12-23T14:27:04.681Z,38.05
2022-12-23T14:29:56.380Z,30.45
2022-12-23T14:32:36.249Z,38.88
2022-12-23T14:35:16.384Z,34.63
2022-12-23T14:37:47.779Z,30.40
2022-12-23T14:40:40.632Z,32.45
2022-12-23T14:43:23.401Z,35.40
2022-12-23T14:49:16.249Z,28.13
2022-12-23T14:51:44.621Z,30.02
2022-12-23T14:54:16.858Z,30.88
2022-12-23T14:56:46.476Z,28.08
2022-12-23T14:59:40.943Z,34.47
2022-12-23T15:02:42.855Z,32.00
2022-12-23T15:05:15.166Z,31.63
2022-12-23T15:07:48.411Z,33.08
2022-12-23T15:10:22.214Z,32.25
2022-12-23T15:13:03.978Z,31.85
2022-12-23T15:15:32.278Z,32.67
2022-12-23T15:18:15.885Z,32.22
2022-12-23T15:20:42.550Z,32.67
2022-12-23T15:23:17.339Z,31.17
2022-12-23T15:25:56.700Z,33.85
2022-12-23T15:28:32.423Z,32.75
2022-12-23T15:31:01.139Z,31.55
2022-12-23T15:36:32.850Z,34.72
2022-12-23T15:39:08.158Z,33.90
2022-12-23T15:41:47.930Z,32.95
2022-12-23T15:44:21.879Z,35.95
2022-12-23T15:46:50.542Z,35.20
2022-12-23T15:49:26.741Z,37.67
2022-12-23T15:52:07.837Z,38.05
2022-12-23T15:54:59.564Z,39.17
2022-12-23T15:57:32.471Z,41.25
2022-12-23T16:00:19.996Z,37.10
2022-12-23T16:03:00.249Z,38.13
2022-12-23T16:05:39.198Z,36.93
2022-12-23T16:08:12.194Z,42.28
2022-12-23T16:10:40.265Z,40.67
2022-12-23T16:13:33.791Z,37.22
2022-12-23T16:16:19.000Z,40.97
2022-12-23T16:18:47.861Z,39.50
2022-12-23T16:21:15.908Z,41.47
2022-12-23T16:23:53.877Z,40.38
2022-12-23T16:26:31.655Z,39.83
2022-12-23T16:29:13.148Z,39.72
2022-12-23T16:32:08.132Z,40.05
2022-12-23T16:34:47.445Z,40.03
2022-12-23T16:37:15.498Z,38.03
2022-12-23T16:39:49.544Z,39.92
2022-12-23T16:42:26.654Z,43.63
2022-12-23T16:45:01.445Z,42.60
2022-12-23T16:47:29.612Z,44.60
2022-12-23T16:50:03.298Z,42.95
2022-12-23T16:52:38.393Z,40.28
2022-12-23T16:55:17.226Z,37.92
2022-12-23T16:57:44.956Z,40.13
2022-12-23T17:00:32.360Z,38.88
2022-12-23T17:03:01.921Z,39.47
2022-12-23T17:05:34.002Z,39.75
2022-12-23T17:08:11.721Z,40.15
2022-12-23T17:10:45.073Z,42.25
2022-12-23T17:13:18.567Z,39.13
2022-12-23T17:15:45.925Z,41.95
2022-12-23T17:18:15.718Z,39.65
2022-12-23T17:20:53.969Z,39.55
2022-12-23T17:23:33.285Z,40.25
2022-12-23T17:25:59.907Z,38.95
2022-12-23T17:28:36.215Z,41.10
2022-12-23T17:31:14.348Z,41.83
2022-12-23T17:33:45.232Z,40.65
2022-12-23T17:36:12.377Z,42.00
2022-12-23T17:38:41.853Z,40.60
2022-12-23T17:41:30.426Z,42.00
2022-12-23T17:43:58.080Z,42.47
2022-12-23T17:46:29.690Z,43.22
2022-12-23T17:48:56.550Z,40.95
2022-12-23T17:51:23.773Z,41.38
2022-12-23T17:53:57.813Z,39.42
2022-12-23T17:56:26.874Z,41.35
2022-12-23T17:58:56.317Z,41.17
2022-12-23T18:01:32.557Z,40.67
2022-12-23T18:04:03.213Z,42.22
2022-12-23T18:06:29.913Z,44.78
2022-12-23T18:09:04.015Z,45.65
2022-12-23T18:11:40.376Z,46.08
2022-12-23T18:14:13.855Z,46.40
2022-12-23T18:16:46.372Z,45.95
2022-12-23T18:19:23.047Z,46.03
2022-12-23T18:21:51.383Z,45.70
2022-12-23T18:24:19.579Z,45.75
2022-12-23T18:26:49.243Z,47.95
2022-12-23T18:29:16.030Z,47.40
2022-12-23T18:31:51.689Z,46.60
2022-12-23T18:34:28.674Z,45.83
2022-12-23T18:36:56.219Z,41.28
2022-12-23T18:39:48.730Z,42.92
2022-12-23T18:42:20.903Z,45.58
2022-12-23T18:44:55.769Z,48.20
2022-12-23T18:47:37.479Z,47.88
2022-12-23T18:50:08.318Z,48.22
2022-12-23T18:52:38.919Z,48.03
2022-12-23T18:55:13.050Z,50.13
2022-12-23T18:57:42.967Z,49.67
2022-12-23T19:00:29.712Z,51.45
2022-12-23T19:02:57.142Z,51.38
2022-12-23T19:05:29.238Z,53.03
2022-12-23T19:10:30.687Z,52.20
2022-12-23T19:12:57.234Z,53.65
2022-12-23T19:15:27.317Z,56.20
2022-12-23T19:17:59.743Z,55.45
2022-12-23T19:20:26.811Z,53.13
2022-12-23T19:22:53.528Z,55.97
2022-12-23T19:25:21.157Z,45.35
2022-12-23T19:27:51.563Z,55.53
2022-12-23T19:30:19.643Z,53.83
2022-12-23T19:32:47.790Z,56.58
2022-12-23T19:35:15.424Z,55.78
2022-12-23T19:37:42.878Z,56.90
2022-12-23T19:40:10.894Z,53.28
2022-12-23T19:42:40.786Z,56.17
2022-12-23T19:45:12.183Z,56.70
2022-12-23T19:47:39.263Z,58.75
2022-12-23T19:50:07.129Z,56.75
2022-12-23T19:52:34.104Z,59.15
2022-12-23T19:55:00.828Z,57.70
2022-12-23T19:57:30.243Z,57.58
2022-12-23T19:59:56.964Z,58.80
2022-12-23T20:02:23.604Z,56.88
2022-12-23T20:04:50.208Z,54.90
2022-12-23T20:07:19.512Z,56.30
2022-12-23T20:09:46.288Z,56.55
2022-12-23T20:12:13.091Z,55.28
2022-12-23T20:14:43.917Z,57.08
2022-12-23T20:17:14.445Z,57.20
2022-12-23T20:19:52.492Z,56.83
2022-12-23T20:22:19.216Z,59.20
2022-12-23T20:24:46.945Z,56.67
2022-12-23T20:27:16.103Z,58.97
2022-12-23T20:29:43.388Z,58.75
2022-12-23T20:32:10.561Z,56.97
2022-12-23T20:34:40.049Z,60.75
2022-12-23T20:37:07.673Z,58.67
2022-12-23T20:39:35.689Z,58.58
2022-12-23T20:42:02.861Z,60.25
2022-12-23T20:44:39.890Z,62.03
2022-12-23T20:47:06.881Z,68.72
2022-12-23T20:49:39.556Z,65.35
2022-12-23T20:52:12.227Z,64.47
2022-12-23T20:54:38.868Z,56.80
2022-12-23T20:57:07.284Z,56.70
2022-12-23T20:59:33.941Z,57.13
2022-12-23T21:02:01.109Z,56.38
2022-12-23T21:04:36.352Z,53.33
2022-12-23T21:07:12.119Z,44.30
2022-12-23T21:09:41.511Z,50.42
2022-12-23T21:12:08.446Z,50.67
2022-12-23T21:14:37.994Z,43.55
2022-12-23T21:17:05.534Z,46.72
2022-12-23T21:19:32.248Z,50.20
2022-12-23T21:22:00.892Z,53.53
2022-12-23T21:24:28.090Z,54.35
2022-12-23T21:26:58.376Z,53.92
2022-12-23T21:29:29.953Z,50.63
2022-12-23T21:32:05.935Z,51.50
2022-12-23T21:34:32.660Z,48.08
2022-12-23T21:37:02.528Z,52.42
2022-12-23T21:39:35.785Z,57.42
2022-12-23T21:42:03.781Z,60.17
2022-12-23T21:44:32.223Z,58.83
2022-12-23T21:47:01.854Z,60.13
2022-12-23T21:49:31.780Z,64.70
2022-12-23T21:52:01.447Z,46.30
2022-12-23T21:54:33.007Z,56.20
2022-12-23T21:56:59.691Z,62.90
2022-12-23T21:59:31.121Z,60.75
2022-12-23T22:02:01.350Z,50.95
2022-12-23T22:04:32.607Z,60.88
2022-12-23T22:06:59.362Z,64.07
2022-12-23T22:09:27.292Z,62.33
2022-12-23T22:11:56.487Z,64.40
2022-12-23T22:14:23.119Z,55.38
2022-12-23T22:16:49.840Z,62.30
2022-12-23T22:19:19.989Z,64.75
2022-12-23T22:21:46.562Z,59.45
2022-12-23T22:24:13.174Z,57.08
2022-12-23T22:26:42.989Z,54.83
2022-12-23T22:29:10.963Z,61.42
2022-12-23T22:31:49.092Z,63.30
2022-12-23T22:34:18.874Z,63.40
2022-12-23T22:36:48.573Z,57.97
2022-12-23T22:39:21.013Z,65.68
2022-12-23T22:41:51.936Z,65.50
2022-12-23T22:44:19.551Z,64.50
2022-12-23T22:46:46.650Z,65.93
2022-12-23T22:49:14.373Z,65.25
2022-12-23T22:51:44.642Z,64.57
2022-12-23T22:54:11.350Z,62.08
2022-12-23T22:56:38.117Z,62.85
2022-12-23T22:59:05.016Z,70.00
2022-12-23T23:01:36.340Z,69.75
2022-12-23T23:04:04.018Z,66.93
2022-12-23T23:06:36.620Z,70.93
2022-12-23T23:09:05.019Z,70.38
2022-12-23T23:11:31.616Z,70.88
2022-12-23T23:13:58.740Z,68.40
2022-12-23T23:16:25.816Z,58.75
2022-12-23T23:18:53.564Z,47.35
2022-12-23T23:21:25.423Z,63.63
2022-12-23T23:23:58.530Z,65.20
2022-12-23T23:26:27.775Z,64.55
2022-12-23T23:28:57.677Z,66.13
2022-12-23T23:31:45.551Z,68.97
2022-12-23T23:34:13.459Z,65.88
2022-12-23T23:36:45.499Z,67.00
2022-12-23T23:41:45.907Z,68.65
2022-12-23T23:44:15.410Z,68.90
2022-12-23T23:46:46.288Z,71.55
2022-12-23T23:49:15.694Z,71.72
2022-12-23T23:51:42.364Z,70.35
2022-12-23T23:54:12.073Z,75.15
2022-12-23T23:56:39.614Z,71.13
2022-12-23T23:59:11.653Z,72.28
